METAR AND TAF INFORMATION
METAR FOR SBPJ
ADDS - METARS form results

(2301 UTC 20 July 2019)
Data provider http://aviationweather.gov/metar/data/
 
Forecast for: SBPJ (PALMAS , BR)
Text: TAF SBPJ 201600Z 2018/2106 09008KT CAVOK TX34/2018Z TN20/2107Z
Forecast period: 1800 to 2200 UTC 20 July 2019
Forecast type: FROM: standard forecast or significant change
Winds: from the E (90 degrees) at 9 MPH (8 knots; 4.1 m/s)
Visibility: 6 or more miles 10+ km)
Ceiling: unknown
Clouds: missing
Weather: no significant weather forecast for this period
Text: BECMG 2022/2024 13003KT RMK PEH
Forecast period: 2200 UTC 20 July 2019 to 0600 UTC 21 July 2019
Forecast type: BECOMING: Conditions expected to become as follows by 0000 UTC 21 July 2019
Winds: from the SE (130 degrees) at 3 MPH (3 knots; 1.5 m/s)
Visibility: 6 or more miles 10+ km)
Ceiling: unknown
Clouds: missing
Weather: no significant weather forecast for this period

 AIRPORT MAP

 RUNWAY INFORMATION
Runway 14 Runway length 8202 ft Runway width 148 ft
Runway elevation 0 ft Runway displaced threshold 0 ft Runway heading 0
Runway 32 Runway length 8202 ft Runway width 148 ft
Runway elevation 0 ft Runway displaced threshold 0 ft Runway heading 0

 AIRPORT FREQUENCIES
Type AFIS Name PALMAS RDO Frequency 119 MHZ
Type APP Name PALMAS APP Frequency 119 MHZ
Type TWR Name PALMAS TWR Frequency 118 MHZ

 AIRPORT NEAR NAVIGATION AIDS
Type VOR-DME Name Palmas Frequency 112200 KHZ